createdAt,value
2023-03-29T00:01:05.789Z,47.51
2023-03-29T00:03:32.491Z,47.20
2023-03-29T00:06:00.375Z,47.15
2023-03-29T00:08:26.870Z,47.04
2023-03-29T00:10:53.323Z,47.26
2023-03-29T00:13:19.805Z,46.89
2023-03-29T00:15:46.270Z,47.39
2023-03-29T00:18:12.771Z,46.88
2023-03-29T00:20:39.249Z,46.37
2023-03-29T00:23:05.763Z,46.71
2023-03-29T00:25:32.278Z,46.46
2023-03-29T00:27:58.724Z,45.90
2023-03-29T00:30:25.188Z,46.05
2023-03-29T00:32:51.786Z,46.91
2023-03-29T00:35:18.566Z,46.27
2023-03-29T00:37:45.520Z,45.75
2023-03-29T00:40:12.922Z,45.49
2023-03-29T00:42:39.462Z,45.57
2023-03-29T00:45:16.147Z,45.56
2023-03-29T00:47:44.874Z,45.57
2023-03-29T00:50:21.516Z,45.72
2023-03-29T00:52:56.595Z,46.11
2023-03-29T00:55:26.934Z,46.20
2023-03-29T00:57:56.115Z,45.94
2023-03-29T01:00:29.867Z,46.74
2023-03-29T01:02:59.445Z,46.63
2023-03-29T01:05:40.288Z,46.72
2023-03-29T01:08:12.421Z,47.40
2023-03-29T01:10:43.163Z,47.10
2023-03-29T01:13:25.222Z,46.78
2023-03-29T01:15:53.891Z,47.04
2023-03-29T01:18:20.408Z,48.00
2023-03-29T01:20:49.650Z,48.03
2023-03-29T01:23:54.155Z,47.94
2023-03-29T01:26:20.585Z,48.15
2023-03-29T01:28:53.107Z,48.17
2023-03-29T01:31:28.280Z,48.55
2023-03-29T01:34:05.513Z,48.94
2023-03-29T01:36:39.548Z,49.12
2023-03-29T01:39:07.183Z,49.30
2023-03-29T01:42:06.959Z,49.42
2023-03-29T01:44:42.262Z,49.97
2023-03-29T01:47:22.640Z,50.35
2023-03-29T01:49:57.801Z,50.35
2023-03-29T01:53:06.157Z,50.40
2023-03-29T01:55:37.502Z,49.87
2023-03-29T01:58:07.064Z,49.81
2023-03-29T02:00:35.390Z,49.94
2023-03-29T02:03:07.761Z,50.44
2023-03-29T02:05:35.488Z,50.62
2023-03-29T02:08:04.284Z,50.94
2023-03-29T02:10:32.863Z,51.15
2023-03-29T02:12:59.680Z,51.33
2023-03-29T02:15:26.507Z,51.39
2023-03-29T02:17:53.321Z,51.89
2023-03-29T02:20:33.576Z,52.50
2023-03-29T02:23:15.344Z,52.76
2023-03-29T02:25:43.272Z,53.34
2023-03-29T02:28:09.935Z,53.14
2023-03-29T02:31:02.901Z,53.07
2023-03-29T02:33:42.186Z,52.79
2023-03-29T02:36:26.849Z,52.69
2023-03-29T02:38:54.214Z,52.96
2023-03-29T02:41:22.877Z,53.50
2023-03-29T02:43:50.656Z,53.65
2023-03-29T02:46:18.875Z,53.41
2023-03-29T02:48:47.608Z,53.46
2023-03-29T02:51:24.451Z,53.35
2023-03-29T02:53:57.666Z,53.35
2023-03-29T02:56:24.138Z,53.41
2023-03-29T02:58:50.609Z,53.47
2023-03-29T03:01:18.306Z,53.50
2023-03-29T03:03:44.816Z,53.46
2023-03-29T03:06:11.422Z,53.48
2023-03-29T03:08:38.377Z,53.60
2023-03-29T03:11:05.120Z,53.84
2023-03-29T03:13:31.701Z,54.13
2023-03-29T03:15:58.258Z,54.21
2023-03-29T03:18:24.899Z,54.37
2023-03-29T03:20:56.004Z,54.53
2023-03-29T03:23:22.463Z,54.48
2023-03-29T03:25:48.925Z,54.72
2023-03-29T03:28:15.538Z,54.95
2023-03-29T03:30:42.031Z,55.28
2023-03-29T03:33:08.530Z,55.38
2023-03-29T03:35:35.086Z,55.44
2023-03-29T03:38:01.665Z,55.60
2023-03-29T03:40:28.446Z,55.78
2023-03-29T03:42:54.965Z,55.94
2023-03-29T03:45:21.435Z,55.96
2023-03-29T03:47:47.923Z,55.94
2023-03-29T03:50:14.423Z,55.92
2023-03-29T03:52:40.900Z,56.19
2023-03-29T03:55:07.736Z,56.22
2023-03-29T03:57:34.222Z,56.22
2023-03-29T04:00:00.731Z,56.58
2023-03-29T04:02:27.322Z,56.42
2023-03-29T04:04:53.863Z,56.40
2023-03-29T04:07:20.348Z,56.76
2023-03-29T04:09:46.841Z,56.92
2023-03-29T04:12:13.313Z,56.81
2023-03-29T04:14:39.795Z,56.93
2023-03-29T04:17:06.398Z,57.09
2023-03-29T04:19:32.928Z,57.23
2023-03-29T04:21:59.401Z,57.35
2023-03-29T04:24:26.002Z,57.42
2023-03-29T04:26:52.453Z,57.74
2023-03-29T04:29:18.956Z,58.07
2023-03-29T04:31:45.504Z,57.77
2023-03-29T04:34:11.995Z,57.79
2023-03-29T04:36:38.502Z,57.83
2023-03-29T04:39:05.013Z,57.83
2023-03-29T04:41:31.471Z,58.03
2023-03-29T04:43:57.980Z,58.10
2023-03-29T04:46:24.548Z,58.11
2023-03-29T04:48:51.126Z,58.24
2023-03-29T04:51:17.934Z,58.21
2023-03-29T04:53:44.383Z,58.53
2023-03-29T04:56:10.881Z,58.55
2023-03-29T04:58:37.324Z,58.51
2023-03-29T05:01:04.005Z,58.70
2023-03-29T05:03:30.573Z,58.88
2023-03-29T05:06:05.507Z,58.84
2023-03-29T05:08:33.307Z,58.51
2023-03-29T05:10:59.881Z,57.84
2023-03-29T05:13:26.490Z,57.01
2023-03-29T05:15:52.977Z,56.51
2023-03-29T05:18:19.473Z,56.25
2023-03-29T05:20:45.969Z,56.09
2023-03-29T05:23:12.481Z,56.13
2023-03-29T05:25:38.991Z,56.08
2023-03-29T05:28:05.488Z,56.01
2023-03-29T05:30:31.964Z,55.93
2023-03-29T05:32:58.460Z,55.78
2023-03-29T05:35:24.919Z,55.68
2023-03-29T05:37:51.373Z,55.59
2023-03-29T05:40:18.017Z,55.47
2023-03-29T05:42:44.475Z,55.32
2023-03-29T05:45:11.196Z,55.32
2023-03-29T05:47:37.781Z,55.24
2023-03-29T05:50:05.182Z,54.99
2023-03-29T05:52:31.672Z,54.67
2023-03-29T05:54:58.116Z,54.59
2023-03-29T05:57:24.608Z,54.37
2023-03-29T05:59:51.100Z,54.21
2023-03-29T06:02:17.608Z,54.25
2023-03-29T06:04:44.282Z,53.60
2023-03-29T06:07:10.782Z,52.68
2023-03-29T06:09:37.253Z,52.21
2023-03-29T06:12:03.840Z,52.27
2023-03-29T06:14:30.426Z,51.73
2023-03-29T06:16:56.983Z,51.38
2023-03-29T06:19:23.693Z,50.89
2023-03-29T06:21:50.440Z,50.66
2023-03-29T06:24:16.979Z,50.32
2023-03-29T06:26:43.436Z,49.85
2023-03-29T06:29:09.951Z,49.70
2023-03-29T06:31:36.659Z,49.47
2023-03-29T06:34:03.335Z,48.99
2023-03-29T06:36:29.932Z,49.06
2023-03-29T06:38:56.420Z,48.62
2023-03-29T06:41:22.932Z,48.27
2023-03-29T06:43:49.444Z,48.19
2023-03-29T06:46:15.972Z,47.99
2023-03-29T06:48:42.448Z,47.79
2023-03-29T06:51:08.934Z,47.16
2023-03-29T06:53:35.449Z,47.38
2023-03-29T06:56:02.043Z,47.57
2023-03-29T06:58:28.535Z,47.17
2023-03-29T07:01:00.232Z,46.83
2023-03-29T07:03:26.865Z,46.51
2023-03-29T07:05:53.494Z,45.82
2023-03-29T07:08:19.957Z,45.51
2023-03-29T07:10:47.732Z,45.27
2023-03-29T07:13:14.878Z,45.21
2023-03-29T07:15:43.003Z,44.92
2023-03-29T07:18:10.063Z,45.01
2023-03-29T07:20:36.960Z,45.08
2023-03-29T07:23:03.443Z,44.43
2023-03-29T07:25:29.894Z,44.33
2023-03-29T07:27:56.794Z,43.98
2023-03-29T07:30:26.003Z,43.68
2023-03-29T07:32:52.652Z,43.27
2023-03-29T07:35:19.788Z,43.16
2023-03-29T07:37:46.544Z,42.65
2023-03-29T07:40:15.321Z,42.73
2023-03-29T07:42:46.209Z,42.76
2023-03-29T07:45:14.796Z,42.91
2023-03-29T07:47:41.401Z,42.06
2023-03-29T07:50:08.727Z,41.80
2023-03-29T07:52:37.138Z,42.22
2023-03-29T07:55:05.701Z,41.74
2023-03-29T07:57:32.255Z,41.77
2023-03-29T07:59:58.820Z,41.88
2023-03-29T08:02:25.659Z,40.83
2023-03-29T08:04:54.273Z,40.26
2023-03-29T08:07:20.827Z,40.52
2023-03-29T08:09:47.284Z,39.28
2023-03-29T08:12:13.767Z,39.66
2023-03-29T08:14:40.277Z,40.23
2023-03-29T08:17:06.968Z,39.89
2023-03-29T08:19:33.554Z,38.92
2023-03-29T08:22:00.357Z,38.92
2023-03-29T08:24:26.892Z,39.04
2023-03-29T08:26:53.373Z,38.55
2023-03-29T08:29:19.889Z,38.22
2023-03-29T08:31:46.445Z,38.41
2023-03-29T08:34:13.288Z,38.07
2023-03-29T08:36:39.742Z,38.28
2023-03-29T08:39:06.378Z,37.97
2023-03-29T08:41:32.768Z,37.62
2023-03-29T08:44:29.407Z,36.89
2023-03-29T08:47:17.615Z,36.60
2023-03-29T08:49:50.360Z,36.65
2023-03-29T08:52:28.894Z,36.09
2023-03-29T08:54:57.734Z,36.07
2023-03-29T08:57:40.571Z,36.18
2023-03-29T09:00:08.602Z,35.76
2023-03-29T09:02:35.401Z,35.03
2023-03-29T09:05:20.695Z,35.35
2023-03-29T09:07:47.342Z,35.39
2023-03-29T09:10:19.622Z,34.12
2023-03-29T09:13:01.235Z,34.49
2023-03-29T09:15:40.164Z,34.57
2023-03-29T09:18:23.720Z,35.39
2023-03-29T09:21:28.102Z,34.78
2023-03-29T09:24:16.781Z,33.27
2023-03-29T09:26:52.798Z,34.09
2023-03-29T09:29:31.828Z,33.93
2023-03-29T09:31:59.289Z,34.34
2023-03-29T09:34:41.746Z,33.54
2023-03-29T09:37:14.159Z,33.68
2023-03-29T09:39:40.827Z,32.08
2023-03-29T09:42:09.323Z,31.49
2023-03-29T09:44:38.442Z,31.26
2023-03-29T09:47:17.771Z,31.41
2023-03-29T09:49:49.285Z,31.16
2023-03-29T09:52:17.770Z,30.66
2023-03-29T09:54:44.505Z,30.08
2023-03-29T09:57:17.091Z,30.09
2023-03-29T09:59:45.743Z,29.49
2023-03-29T10:02:13.910Z,28.44
2023-03-29T10:04:41.964Z,28.17
2023-03-29T10:07:16.132Z,28.34
2023-03-29T10:09:45.736Z,28.06
2023-03-29T10:12:13.708Z,26.16
2023-03-29T10:14:46.118Z,25.18
2023-03-29T10:17:21.517Z,24.33
2023-03-29T10:20:00.361Z,22.88
2023-03-29T10:22:35.660Z,21.71
2023-03-29T10:25:02.157Z,20.54
2023-03-29T10:27:31.637Z,20.08
2023-03-29T10:30:00.168Z,18.74
2023-03-29T10:32:38.018Z,17.75
2023-03-29T10:35:22.769Z,18.30
2023-03-29T10:37:52.092Z,17.06
2023-03-29T10:40:27.397Z,14.72
2023-03-29T10:42:58.895Z,14.31
2023-03-29T10:45:28.830Z,13.53
2023-03-29T10:47:56.781Z,12.01
2023-03-29T10:50:23.890Z,11.99
2023-03-29T10:52:50.570Z,11.40
2023-03-29T10:55:17.333Z,9.65
2023-03-29T10:58:00.530Z,9.66
2023-03-29T11:00:50.855Z,10.09
2023-03-29T11:03:40.683Z,8.82
2023-03-29T11:06:19.092Z,8.05
2023-03-29T11:09:06.885Z,8.50
2023-03-29T11:12:12.247Z,8.29
2023-03-29T11:14:55.984Z,7.94
2023-03-29T11:17:37.463Z,8.40
2023-03-29T11:20:22.041Z,7.57
2023-03-29T11:23:07.166Z,6.67
2023-03-29T11:25:53.172Z,6.98
2023-03-29T11:28:31.879Z,7.90
2023-03-29T11:31:16.789Z,8.55
2023-03-29T11:34:18.711Z,9.14
2023-03-29T11:37:04.842Z,9.89
2023-03-29T11:39:52.936Z,10.90
2023-03-29T11:42:24.615Z,11.86
2023-03-29T11:44:55.109Z,12.84
2023-03-29T11:47:22.148Z,13.88
2023-03-29T11:50:17.121Z,14.75
2023-03-29T11:52:49.163Z,15.60
2023-03-29T11:55:21.568Z,16.39
2023-03-29T11:57:49.855Z,16.88
2023-03-29T12:00:23.154Z,17.50
2023-03-29T12:02:59.514Z,18.16
2023-03-29T12:05:44.145Z,19.15
2023-03-29T12:08:22.838Z,19.80
2023-03-29T12:11:04.137Z,20.49
2023-03-29T12:13:33.531Z,21.14
2023-03-29T12:16:10.110Z,21.59
2023-03-29T12:18:41.080Z,21.72
2023-03-29T12:21:13.782Z,22.17
2023-03-29T12:23:43.338Z,22.55
2023-03-29T12:27:06.969Z,23.00
2023-03-29T12:29:53.255Z,23.73
2023-03-29T12:32:38.019Z,23.78
2023-03-29T12:35:23.263Z,24.29
2023-03-29T12:38:25.010Z,24.69
2023-03-29T12:41:00.444Z,25.09
2023-03-29T12:43:31.602Z,25.15
2023-03-29T12:46:10.353Z,25.38
2023-03-29T12:48:39.745Z,25.54
2023-03-29T12:51:15.965Z,25.39
2023-03-29T12:53:49.318Z,25.39
2023-03-29T12:56:20.834Z,25.85
2023-03-29T12:58:50.365Z,26.55
2023-03-29T13:01:31.760Z,26.46
2023-03-29T13:04:01.127Z,26.43
2023-03-29T13:06:30.277Z,26.68
2023-03-29T13:09:20.354Z,26.56
2023-03-29T13:11:53.286Z,27.15
2023-03-29T13:14:23.879Z,27.54
2023-03-29T13:16:50.577Z,27.88
2023-03-29T13:19:46.386Z,28.36
2023-03-29T13:22:36.985Z,28.36
2023-03-29T13:25:40.732Z,28.92
2023-03-29T13:28:16.469Z,28.94
2023-03-29T13:30:49.976Z,28.92
2023-03-29T13:33:16.449Z,29.16
2023-03-29T13:35:46.185Z,29.28
2023-03-29T13:38:23.334Z,29.41
2023-03-29T13:40:52.865Z,29.29
2023-03-29T13:43:19.349Z,29.36
2023-03-29T13:46:03.681Z,29.52
2023-03-29T13:48:30.326Z,29.95
2023-03-29T13:51:00.696Z,30.26
2023-03-29T13:53:48.687Z,30.93
2023-03-29T13:56:34.510Z,30.34
2023-03-29T13:59:27.748Z,29.53
2023-03-29T14:02:00.168Z,29.50
2023-03-29T14:04:31.585Z,29.11
2023-03-29T14:06:58.498Z,28.66
2023-03-29T14:09:32.040Z,28.95
2023-03-29T14:12:02.033Z,29.28
2023-03-29T14:14:31.952Z,29.24
2023-03-29T14:17:01.612Z,29.64
2023-03-29T14:19:35.855Z,29.64
2023-03-29T14:22:07.625Z,29.59
2023-03-29T14:24:38.283Z,29.57
2023-03-29T14:27:06.619Z,29.66
2023-03-29T14:29:34.308Z,29.82
2023-03-29T14:32:31.574Z,29.29
2023-03-29T14:34:58.312Z,29.20
2023-03-29T14:37:28.588Z,29.26
2023-03-29T14:39:55.717Z,29.08
2023-03-29T14:42:27.898Z,29.10
2023-03-29T14:45:03.109Z,29.46
2023-03-29T14:47:32.184Z,29.42
2023-03-29T14:49:59.568Z,29.78
2023-03-29T14:52:29.069Z,30.17
2023-03-29T14:54:59.780Z,30.33
2023-03-29T14:57:32.610Z,30.65
2023-03-29T15:00:01.616Z,30.95
2023-03-29T15:02:33.382Z,31.35
2023-03-29T15:05:06.719Z,31.53
2023-03-29T15:07:35.670Z,31.83
2023-03-29T15:10:05.086Z,32.16
2023-03-29T15:12:32.831Z,32.19
2023-03-29T15:15:00.917Z,32.30
2023-03-29T15:17:50.308Z,32.58
2023-03-29T15:20:38.573Z,32.53
2023-03-29T15:23:17.160Z,33.05
2023-03-29T15:26:08.562Z,33.09
2023-03-29T15:28:45.265Z,33.40
2023-03-29T15:31:14.275Z,33.27
2023-03-29T15:33:41.789Z,33.27
2023-03-29T15:36:10.952Z,33.55
2023-03-29T15:41:09.236Z,33.85
2023-03-29T15:43:35.758Z,34.09
2023-03-29T15:46:02.519Z,34.03
2023-03-29T15:48:29.748Z,34.10
2023-03-29T15:50:57.213Z,33.99
2023-03-29T15:53:25.576Z,34.08
2023-03-29T15:55:54.541Z,34.29
2023-03-29T15:58:32.347Z,34.53
2023-03-29T16:01:16.101Z,34.48
2023-03-29T16:03:43.485Z,34.76
2023-03-29T16:06:12.229Z,34.70
2023-03-29T16:08:38.711Z,34.78
2023-03-29T16:11:05.470Z,34.93
2023-03-29T16:13:32.265Z,35.28
2023-03-29T16:15:58.803Z,35.28
2023-03-29T16:18:25.366Z,35.45
2023-03-29T16:20:51.840Z,35.48
2023-03-29T16:23:18.350Z,35.41
2023-03-29T16:25:44.858Z,35.55
2023-03-29T16:28:11.430Z,35.73
2023-03-29T16:30:40.472Z,35.97
2023-03-29T16:33:06.969Z,36.24
2023-03-29T16:35:36.214Z,36.61
2023-03-29T16:38:03.228Z,36.84
2023-03-29T16:40:29.799Z,36.67
2023-03-29T16:42:56.258Z,36.91
2023-03-29T16:45:22.851Z,36.92
2023-03-29T16:47:49.884Z,37.11
2023-03-29T16:50:18.101Z,36.98
2023-03-29T16:52:46.118Z,37.25
2023-03-29T16:55:13.745Z,37.21
2023-03-29T16:57:40.651Z,37.15
2023-03-29T17:00:09.147Z,37.16
2023-03-29T17:02:35.686Z,37.31
2023-03-29T17:05:02.204Z,37.61
2023-03-29T17:07:28.744Z,38.07
2023-03-29T17:09:55.903Z,37.98
2023-03-29T17:12:22.585Z,38.10
2023-03-29T17:14:49.566Z,38.39
2023-03-29T17:17:16.051Z,38.34
2023-03-29T17:19:42.620Z,38.59
2023-03-29T17:22:09.215Z,38.77
2023-03-29T17:24:35.686Z,39.00
2023-03-29T17:27:02.220Z,39.02
2023-03-29T17:29:28.732Z,39.07
2023-03-29T17:31:55.246Z,39.52
2023-03-29T17:34:21.729Z,39.85
2023-03-29T17:36:48.212Z,40.25
2023-03-29T17:39:15.126Z,40.46
2023-03-29T17:41:44.700Z,40.90
2023-03-29T17:44:11.177Z,41.22
2023-03-29T17:46:38.141Z,41.62
2023-03-29T17:49:05.418Z,41.87
2023-03-29T17:51:31.964Z,42.29
2023-03-29T17:53:58.781Z,42.43
2023-03-29T17:56:25.268Z,42.64
2023-03-29T17:58:51.760Z,42.95
2023-03-29T18:01:18.939Z,43.25
2023-03-29T18:03:46.335Z,43.44
2023-03-29T18:06:13.680Z,43.82
2023-03-29T18:08:40.380Z,43.68
2023-03-29T18:11:08.088Z,43.91
2023-03-29T18:13:34.565Z,44.00
2023-03-29T18:16:02.216Z,44.15
2023-03-29T18:18:28.919Z,44.26
2023-03-29T18:20:55.426Z,44.41
2023-03-29T18:23:21.943Z,44.44
2023-03-29T18:25:49.006Z,44.68
2023-03-29T18:28:15.651Z,44.71
2023-03-29T18:30:42.265Z,44.80
2023-03-29T18:33:08.855Z,44.91
2023-03-29T18:35:35.771Z,44.91
2023-03-29T18:38:02.356Z,45.29
2023-03-29T18:40:30.068Z,45.21
2023-03-29T18:42:56.638Z,45.29
2023-03-29T18:45:23.118Z,45.28
2023-03-29T18:47:49.602Z,45.38
2023-03-29T18:50:16.284Z,45.46
2023-03-29T18:52:42.749Z,45.44
2023-03-29T18:55:09.450Z,45.48
2023-03-29T18:57:36.129Z,45.66
2023-03-29T19:00:02.910Z,45.78
2023-03-29T19:02:29.431Z,45.89
2023-03-29T19:04:55.977Z,45.93
2023-03-29T19:07:22.459Z,46.15
2023-03-29T19:09:48.934Z,46.14
2023-03-29T19:12:15.801Z,46.23
2023-03-29T19:14:42.309Z,46.30
2023-03-29T19:17:08.869Z,46.36
2023-03-29T19:19:35.357Z,46.52
2023-03-29T19:22:01.848Z,46.75
2023-03-29T19:24:28.500Z,46.77
2023-03-29T19:26:55.389Z,46.81
2023-03-29T19:29:24.984Z,46.81
2023-03-29T19:31:51.698Z,47.17
2023-03-29T19:34:18.694Z,47.27
2023-03-29T19:36:45.736Z,47.28
2023-03-29T19:39:12.328Z,47.28
2023-03-29T19:41:41.313Z,47.39
2023-03-29T19:44:08.446Z,47.49
2023-03-29T19:46:35.020Z,47.70
2023-03-29T19:49:03.177Z,47.65
2023-03-29T19:51:31.801Z,47.70
2023-03-29T19:53:58.465Z,47.86
2023-03-29T19:56:26.207Z,47.96
2023-03-29T19:58:55.889Z,48.07
2023-03-29T20:01:23.242Z,48.16
2023-03-29T20:03:50.195Z,48.29
2023-03-29T20:06:18.188Z,48.46
2023-03-29T20:08:45.693Z,48.40
2023-03-29T20:11:13.376Z,48.55
2023-03-29T20:13:45.225Z,48.71
2023-03-29T20:16:15.003Z,48.78
2023-03-29T20:18:42.088Z,48.81
2023-03-29T20:21:09.146Z,49.12
2023-03-29T20:23:36.096Z,48.96
2023-03-29T20:26:02.696Z,49.04
2023-03-29T20:28:32.041Z,49.57
2023-03-29T20:31:05.033Z,49.83
2023-03-29T20:33:31.975Z,49.65
2023-03-29T20:35:58.962Z,49.39
2023-03-29T20:38:25.837Z,49.22
2023-03-29T20:40:53.064Z,49.18
2023-03-29T20:43:19.742Z,49.13
2023-03-29T20:45:52.651Z,49.08
2023-03-29T20:48:20.378Z,48.97
2023-03-29T20:50:46.971Z,49.07
2023-03-29T20:53:14.250Z,49.29
2023-03-29T20:55:40.837Z,49.25
2023-03-29T20:58:07.443Z,49.21
2023-03-29T21:00:34.939Z,49.11
2023-03-29T21:03:02.146Z,49.18
2023-03-29T21:05:31.512Z,49.29
2023-03-29T21:07:58.657Z,49.20
2023-03-29T21:10:27.536Z,49.16
2023-03-29T21:12:54.221Z,49.20
2023-03-29T21:15:21.117Z,49.13
2023-03-29T21:17:47.886Z,49.07
2023-03-29T21:20:15.273Z,49.16
2023-03-29T21:22:42.724Z,49.09
2023-03-29T21:25:11.398Z,49.05
2023-03-29T21:27:38.329Z,49.13
2023-03-29T21:30:07.095Z,49.15
2023-03-29T21:32:33.894Z,49.27
2023-03-29T21:35:00.666Z,49.16
2023-03-29T21:37:27.161Z,49.14
2023-03-29T21:39:53.641Z,49.43
2023-03-29T21:42:20.142Z,49.74
2023-03-29T21:44:46.636Z,49.47
2023-03-29T21:47:13.177Z,49.70
2023-03-29T21:49:39.711Z,49.66
2023-03-29T21:52:06.270Z,49.68
2023-03-29T21:54:32.750Z,49.72
2023-03-29T21:56:59.309Z,49.76
2023-03-29T21:59:25.992Z,50.03
2023-03-29T22:01:52.612Z,50.15
2023-03-29T22:04:33.197Z,50.13
2023-03-29T22:07:02.215Z,50.23
2023-03-29T22:09:28.695Z,50.51
2023-03-29T22:11:55.225Z,50.64
2023-03-29T22:14:21.693Z,50.77
2023-03-29T22:16:48.323Z,50.79
2023-03-29T22:19:14.901Z,50.80
2023-03-29T22:21:41.378Z,51.04
2023-03-29T22:24:08.038Z,51.16
2023-03-29T22:26:34.652Z,51.23
2023-03-29T22:29:01.356Z,51.38
2023-03-29T22:31:28.983Z,51.40
2023-03-29T22:33:55.877Z,51.34
2023-03-29T22:36:25.562Z,51.33
2023-03-29T22:38:53.722Z,51.36
2023-03-29T22:41:22.251Z,51.50
2023-03-29T22:43:53.956Z,51.74
2023-03-29T22:46:21.026Z,51.81
2023-03-29T22:48:47.747Z,51.91
2023-03-29T22:51:14.470Z,52.04
2023-03-29T22:53:40.992Z,52.20
2023-03-29T22:56:07.532Z,52.38
2023-03-29T22:58:34.096Z,52.75
2023-03-29T23:01:00.671Z,52.92
2023-03-29T23:03:27.202Z,52.90
2023-03-29T23:05:56.707Z,52.92
2023-03-29T23:08:24.748Z,52.97
2023-03-29T23:10:52.014Z,53.06
2023-03-29T23:13:19.551Z,53.19
2023-03-29T23:15:48.453Z,53.23
2023-03-29T23:18:16.221Z,53.21
2023-03-29T23:20:43.120Z,53.43
2023-03-29T23:23:09.760Z,53.64
2023-03-29T23:25:36.508Z,53.64
2023-03-29T23:28:03.797Z,53.69
2023-03-29T23:30:30.557Z,53.78
2023-03-29T23:32:57.142Z,54.13
2023-03-29T23:35:23.834Z,54.47
2023-03-29T23:37:50.383Z,54.68
2023-03-29T23:40:17.011Z,54.97
2023-03-29T23:42:45.616Z,55.05
2023-03-29T23:45:15.240Z,55.39
2023-03-29T23:47:43.047Z,55.41
2023-03-29T23:50:10.280Z,55.59
2023-03-29T23:52:36.794Z,55.24
2023-03-29T23:55:04.326Z,55.19
2023-03-29T23:57:30.822Z,55.37
2023-03-29T23:59:57.337Z,55.65
